Time;durP1;ratioP1;P1;durP2;ratioP2;P2;SDS_P1;SDS_P2;PMS_P1;PMS_P2;Temp;Humidity;BMP_temperature;BMP_pressure;BME280_temperature;BME280_humidity;BME280_pressure;Samples;Min_cycle;Max_cycle;Signal;HPM_P1;HPM_P2
2023/11/25 04:07:01;;;;;;;0.40;0.40;;;2.70;99.90;;;;;;5093203;22;20234;-64
2023/11/25 04:09:27;;;;;;;0.60;0.60;;;2.80;99.90;;;;;;4976166;28;20168;-64
2023/11/25 04:11:52;;;;;;;0.40;0.40;;;2.80;99.90;;;;;;4977263;28;20640;-64
2023/11/25 04:14:18;;;;;;;0.40;0.40;;;2.80;99.90;;;;;;4976246;28;20172;-63
2023/11/25 04:16:43;;;;;;;0.40;0.40;;;2.80;99.90;;;;;;4960195;28;20732;-64
2023/11/25 04:19:10;;;;;;;2.40;2.13;;;2.80;99.90;;;;;;4957455;29;20476;-63
2023/11/25 04:21:39;;;;;;;0.38;0.38;;;2.80;99.90;;;;;;4957799;29;20540;-64
2023/11/25 04:24:08;;;;;;;0.40;0.40;;;2.80;99.90;;;;;;4956692;29;20252;-64
2023/11/25 04:26:36;;;;;;;0.40;0.40;;;2.80;99.90;;;;;;4957953;28;20236;-64
2023/11/25 04:29:02;;;;;;;0.40;0.40;;;2.90;99.90;;;;;;4958206;29;20204;-64
2023/11/25 04:31:27;;;;;;;0.30;0.30;;;2.90;99.90;;;;;;4958121;29;20251;-64
2023/11/25 04:33:53;;;;;;;0.40;0.40;;;2.90;99.90;;;;;;4957607;29;20841;-64
2023/11/25 04:36:19;;;;;;;0.47;0.47;;;2.90;99.90;;;;;;4956307;28;20248;-64
2023/11/25 04:38:44;;;;;;;0.30;0.30;;;2.90;99.90;;;;;;4957823;29;20204;-64
2023/11/25 04:41:10;;;;;;;0.40;0.40;;;2.90;99.90;;;;;;4957293;29;20192;-64
2023/11/25 04:43:36;;;;;;;0.40;0.40;;;2.80;99.90;;;;;;4957428;29;20224;-64
2023/11/25 04:46:04;;;;;;;0.40;0.40;;;2.80;99.90;;;;;;4957524;28;20211;-64
2023/11/25 04:48:30;;;;;;;0.30;0.30;;;2.80;99.90;;;;;;4957613;29;20639;-64
2023/11/25 04:50:55;;;;;;;0.47;0.47;;;2.80;99.90;;;;;;4957798;29;20201;-64
2023/11/25 04:53:21;;;;;;;0.30;0.30;;;2.70;99.90;;;;;;4957510;29;20227;-64
2023/11/25 04:55:48;;;;;;;0.40;0.40;;;2.70;99.90;;;;;;4957058;28;20228;-64
2023/11/25 04:58:14;;;;;;;0.40;0.40;;;2.60;99.90;;;;;;4957516;29;20287;-64
2023/11/25 05:00:40;;;;;;;0.40;0.40;;;2.50;99.90;;;;;;4957630;29;20199;-64
2023/11/25 05:03:05;;;;;;;0.40;0.40;;;2.50;99.90;;;;;;4957077;28;20165;-64
2023/11/25 05:05:32;;;;;;;0.40;0.40;;;2.40;99.90;;;;;;4955761;28;20683;-65
2023/11/25 05:07:58;;;;;;;0.40;0.40;;;2.30;99.90;;;;;;4957644;29;20179;-64
2023/11/25 05:10:23;;;;;;;0.40;0.40;;;2.20;99.90;;;;;;4957440;29;20173;-64
2023/11/25 05:12:50;;;;;;;0.37;0.37;;;2.20;99.90;;;;;;4957416;29;20192;-64
2023/11/25 05:15:16;;;;;;;0.30;0.30;;;2.10;99.90;;;;;;4956599;28;20287;-64
2023/11/25 05:17:42;;;;;;;0.40;0.40;;;2.00;99.90;;;;;;4957162;29;20569;-63
2023/11/25 05:20:10;;;;;;;0.40;0.40;;;2.00;99.90;;;;;;4939881;29;20201;-64
2023/11/25 05:22:35;;;;;;;0.50;0.50;;;1.90;99.90;;;;;;4957429;29;20177;-64
2023/11/25 05:25:01;;;;;;;0.30;0.30;;;1.90;99.90;;;;;;4956492;28;20219;-63
2023/11/25 05:27:27;;;;;;;0.40;0.40;;;1.90;99.90;;;;;;4957116;29;20181;-63
2023/11/25 05:29:54;;;;;;;0.40;0.40;;;1.80;99.90;;;;;;4957263;29;20424;-63
2023/11/25 05:32:19;;;;;;;0.40;0.40;;;1.80;99.90;;;;;;4956954;29;20545;-63
2023/11/25 05:34:45;;;;;;;0.40;0.40;;;1.70;99.90;;;;;;4956382;28;20189;-63
2023/11/25 05:37:10;;;;;;;0.40;0.40;;;1.60;99.90;;;;;;4957010;29;20180;-63
2023/11/25 05:39:36;;;;;;;0.40;0.40;;;1.60;99.90;;;;;;4956799;29;20609;-64
2023/11/25 05:42:04;;;;;;;0.45;0.45;;;1.60;99.90;;;;;;4956851;29;20637;-64
2023/11/25 05:44:31;;;;;;;0.30;0.30;;;1.50;99.90;;;;;;4956244;29;20184;-63
2023/11/25 05:46:57;;;;;;;0.40;0.40;;;1.50;99.90;;;;;;4956311;28;20228;-64
2023/11/25 05:49:22;;;;;;;0.40;0.40;;;1.50;99.90;;;;;;4956704;29;20181;-64
2023/11/25 05:51:50;;;;;;;0.43;0.43;;;1.50;99.90;;;;;;4956639;29;20742;-64
2023/11/25 05:54:16;;;;;;;0.38;0.38;;;1.50;99.90;;;;;;4955649;29;20184;-64
2023/11/25 05:56:42;;;;;;;0.40;0.40;;;1.50;99.90;;;;;;4956587;28;20272;-64
2023/11/25 05:59:08;;;;;;;0.40;0.40;;;1.60;99.90;;;;;;4955832;29;20865;-64
2023/11/25 06:01:35;;;;;;;0.73;0.73;;;1.60;99.90;;;;;;4955332;29;20260;-64
2023/11/25 06:04:01;;;;;;;0.40;0.40;;;1.60;99.90;;;;;;4956601;29;20283;-64
2023/11/25 06:06:27;;;;;;;0.30;0.30;;;1.70;99.90;;;;;;4937318;29;20208;-64
2023/11/25 06:08:52;;;;;;;0.43;0.43;;;1.70;99.90;;;;;;4955907;29;20184;-64
2023/11/25 06:11:22;;;;;;;0.40;0.40;;;1.80;99.90;;;;;;4956179;29;20177;-65
2023/11/25 06:13:48;;;;;;;0.40;0.40;;;1.80;99.90;;;;;;4939022;29;20640;-65
2023/11/25 06:16:15;;;;;;;0.30;0.30;;;1.80;99.90;;;;;;4955643;28;20214;-64
2023/11/25 06:18:40;;;;;;;0.40;0.40;;;1.90;99.90;;;;;;4956036;29;20212;-64
2023/11/25 06:21:06;;;;;;;0.30;0.30;;;1.90;99.90;;;;;;4955898;29;20187;-64
2023/11/25 06:23:32;;;;;;;0.40;0.40;;;1.90;99.90;;;;;;4956065;29;20812;-64
2023/11/25 06:25:59;;;;;;;0.30;0.30;;;1.90;99.90;;;;;;4938127;29;20203;-64
2023/11/25 06:28:25;;;;;;;0.40;0.40;;;2.00;99.90;;;;;;4955791;29;20180;-64
2023/11/25 06:30:53;;;;;;;0.40;0.40;;;2.10;99.90;;;;;;4955917;29;20284;-63
2023/11/25 06:33:25;;;;;;;0.40;0.40;;;2.10;99.90;;;;;;4955758;29;20173;-63
2023/11/25 06:35:51;;;;;;;0.30;0.30;;;2.20;99.90;;;;;;4954364;28;20263;-64
2023/11/25 06:38:17;;;;;;;0.47;0.47;;;2.30;99.90;;;;;;4938520;29;20203;-64
2023/11/25 06:40:43;;;;;;;0.30;0.30;;;2.30;99.90;;;;;;4955958;29;20565;-63
2023/11/25 06:43:09;;;;;;;0.40;0.40;;;2.40;99.90;;;;;;4955745;29;20175;-64
2023/11/25 06:45:35;;;;;;;0.50;0.50;;;2.50;99.90;;;;;;4955097;28;20201;-64
2023/11/25 06:48:02;;;;;;;0.47;0.47;;;2.50;99.90;;;;;;4956284;29;20592;-64
2023/11/25 06:50:28;;;;;;;0.40;0.40;;;2.50;99.90;;;;;;4955761;29;20412;-64
2023/11/25 06:52:54;;;;;;;0.30;0.30;;;2.60;99.90;;;;;;4955537;29;20184;-64
2023/11/25 06:55:19;;;;;;;0.40;0.40;;;2.70;99.90;;;;;;4954635;28;20201;-63
2023/11/25 06:57:45;;;;;;;0.40;0.40;;;2.70;99.90;;;;;;4955407;29;20183;-64
2023/11/25 07:00:13;;;;;;;0.40;0.40;;;2.70;99.90;;;;;;4955367;29;20496;-64
2023/11/25 07:02:42;;;;;;;0.40;0.40;;;2.80;99.90;;;;;;4955624;29;20408;-65
2023/11/25 07:05:09;;;;;;;0.40;0.40;;;2.90;99.90;;;;;;4954817;28;20280;-65
2023/11/25 07:07:35;;;;;;;0.30;0.30;;;2.90;99.90;;;;;;4954468;29;20193;-64
2023/11/25 07:10:01;;;;;;;0.40;0.40;;;2.90;99.90;;;;;;4955102;29;20176;-64
2023/11/25 07:12:26;;;;;;;0.40;0.40;;;3.00;99.90;;;;;;4955042;29;20416;-66
2023/11/25 07:14:52;;;;;;;0.40;0.40;;;3.00;99.90;;;;;;4954491;28;20656;-65
2023/11/25 07:17:18;;;;;;;0.40;0.40;;;3.00;99.90;;;;;;4954917;29;20241;-64
2023/11/25 07:19:44;;;;;;;0.30;0.30;;;3.10;99.90;;;;;;4937932;29;20208;-65
2023/11/25 07:22:10;;;;;;;0.30;0.30;;;3.10;99.90;;;;;;4955250;29;20181;-65
2023/11/25 07:24:39;;;;;;;0.40;0.40;;;3.10;99.90;;;;;;4954565;29;20260;-64
2023/11/25 07:27:08;;;;;;;0.40;0.40;;;3.10;99.90;;;;;;4935157;29;20183;-64
2023/11/25 07:29:34;;;;;;;0.38;0.38;;;3.10;99.90;;;;;;4951438;29;20240;-64
2023/11/25 07:32:00;;;;;;;0.30;0.30;;;3.20;99.90;;;;;;4955237;29;20272;-64
2023/11/25 07:34:28;;;;;;;0.50;0.50;;;3.20;99.90;;;;;;4954613;29;20560;-64
2023/11/25 07:36:55;;;;;;;0.30;0.30;;;3.20;99.90;;;;;;4954629;28;20256;-64
2023/11/25 07:39:22;;;;;;;0.38;0.38;;;3.30;99.90;;;;;;4955105;29;20331;-64
2023/11/25 07:41:53;;;;;;;0.93;0.93;;;3.30;99.90;;;;;;4955119;29;20180;-64
2023/11/25 07:44:21;;;;;;;0.35;0.35;;;3.30;99.90;;;;;;4954626;29;20230;-64
2023/11/25 07:46:47;;;;;;;0.40;0.40;;;3.30;99.90;;;;;;4954689;28;20287;-64
2023/11/25 07:49:13;;;;;;;0.40;0.40;;;3.40;99.90;;;;;;4954919;29;20272;-64
2023/11/25 07:51:38;;;;;;;0.40;0.40;;;3.40;99.90;;;;;;4954824;29;20232;-64
2023/11/25 07:54:04;;;;;;;0.30;0.30;;;3.50;99.90;;;;;;4954610;29;20688;-63
2023/11/25 07:56:30;;;;;;;0.33;0.33;;;3.50;99.90;;;;;;4954656;28;20201;-64
2023/11/25 07:58:55;;;;;;;0.40;0.40;;;3.50;99.90;;;;;;4954751;29;20544;-63
2023/11/25 08:01:21;;;;;;;0.30;0.30;;;3.50;99.90;;;;;;4954505;29;20231;-63
2023/11/25 08:03:47;;;;;;;0.40;0.40;;;3.60;99.90;;;;;;4954571;29;20589;-63
2023/11/25 08:06:15;;;;;;;0.40;0.40;;;3.60;99.90;;;;;;4954224;28;20213;-65
2023/11/25 08:08:41;;;;;;;0.40;0.40;;;3.60;99.90;;;;;;4954645;29;20178;-63
2023/11/25 08:11:08;;;;;;;0.30;0.30;;;3.60;99.90;;;;;;4954791;29;20178;-64
2023/11/25 08:13:34;;;;;;;0.30;0.30;;;3.60;99.90;;;;;;4954811;29;20541;-64
2023/11/25 08:16:02;;;;;;;0.40;0.40;;;3.70;99.90;;;;;;4953842;28;20207;-64
2023/11/25 08:18:27;;;;;;;0.40;0.40;;;3.70;99.90;;;;;;4954638;29;20202;-63
2023/11/25 08:20:53;;;;;;;0.40;0.40;;;3.80;99.90;;;;;;4937252;29;20608;-64
2023/11/25 08:23:19;;;;;;;0.40;0.40;;;3.80;99.90;;;;;;4937572;29;20177;-64
2023/11/25 08:25:46;;;;;;;0.40;0.40;;;3.90;99.90;;;;;;4954216;28;20199;-64
2023/11/25 08:28:12;;;;;;;0.40;0.40;;;4.00;99.90;;;;;;4954115;29;20188;-63
2023/11/25 08:30:37;;;;;;;0.30;0.30;;;4.10;99.90;;;;;;4954593;29;20181;-63
2023/11/25 08:33:04;;;;;;;0.30;0.30;;;4.30;99.90;;;;;;4955061;29;20182;-64
2023/11/25 08:35:30;;;;;;;0.50;0.50;;;4.50;99.90;;;;;;4954135;28;20196;-63
2023/11/25 08:37:55;;;;;;;0.40;0.40;;;4.70;99.90;;;;;;4954929;28;20180;-64
2023/11/25 08:40:21;;;;;;;0.30;0.30;;;4.90;99.90;;;;;;4957944;29;20614;-64
2023/11/25 08:42:49;;;;;;;0.40;0.40;;;5.40;99.90;;;;;;4958083;29;20168;-64
2023/11/25 08:45:15;;;;;;;0.30;0.30;;;6.00;99.90;;;;;;4956778;28;20448;-64
2023/11/25 08:47:42;;;;;;;0.30;0.30;;;6.40;99.90;;;;;;4957886;29;20228;-63
2023/11/25 08:50:10;;;;;;;0.30;0.30;;;6.50;99.90;;;;;;4957611;29;20505;-64
2023/11/25 08:52:38;;;;;;;0.30;0.30;;;6.50;99.90;;;;;;4940408;29;20187;-63
2023/11/25 08:55:09;;;;;;;0.35;0.35;;;6.70;99.90;;;;;;4957086;28;20200;-63
2023/11/25 08:57:36;;;;;;;0.30;0.30;;;6.90;99.90;;;;;;4957196;29;20268;-62
2023/11/25 09:00:14;;;;;;;0.30;0.30;;;7.30;99.90;;;;;;4957388;29;20529;-62
2023/11/25 09:02:40;;;;;;;0.30;0.30;;;7.90;99.90;;;;;;4957494;29;20176;-62
2023/11/25 09:05:06;;;;;;;0.30;0.30;;;8.50;99.90;;;;;;4957126;28;20439;-63
2023/11/25 09:07:32;;;;;;;0.30;0.20;;;9.00;99.90;;;;;;4957163;29;20439;-62
2023/11/25 09:09:59;;;;;;;0.30;0.30;;;9.10;99.90;;;;;;4957699;29;20427;-64
2023/11/25 09:12:24;;;;;;;0.30;0.30;;;9.10;99.90;;;;;;4957109;29;20223;-63
2023/11/25 09:14:50;;;;;;;0.30;0.20;;;9.40;99.90;;;;;;4956704;28;20909;-63
2023/11/25 09:17:16;;;;;;;0.30;0.30;;;9.70;99.90;;;;;;4957202;29;20184;-62
2023/11/25 09:19:42;;;;;;;0.63;0.63;;;10.10;99.90;;;;;;4957246;29;20289;-63
2023/11/25 09:22:11;;;;;;;0.30;0.30;;;10.50;99.90;;;;;;4957432;29;20283;-63
2023/11/25 09:24:37;;;;;;;0.30;0.30;;;10.70;99.10;;;;;;4956530;28;20430;-62
2023/11/25 09:27:03;;;;;;;0.30;0.20;;;10.80;99.20;;;;;;4962323;28;20942;-64
2023/11/25 09:29:29;;;;;;;0.30;0.20;;;11.00;98.90;;;;;;4945756;29;20895;-62
2023/11/25 09:31:55;;;;;;;0.30;0.30;;;11.00;98.50;;;;;;4961889;28;20470;-61
2023/11/25 09:34:20;;;;;;;0.30;0.30;;;11.30;98.30;;;;;;4969225;28;20536;-63
2023/11/25 09:36:49;;;;;;;0.30;0.20;;;11.70;97.60;;;;;;4976027;28;20253;-67
2023/11/25 09:39:15;;;;;;;0.30;0.30;;;11.90;96.50;;;;;;4920652;29;20209;-60
2023/11/25 09:41:40;;;;;;;0.30;0.30;;;12.20;96.30;;;;;;4937772;29;20459;-61
2023/11/25 09:44:08;;;;;;;0.30;0.30;;;12.30;95.40;;;;;;4937163;29;20184;-62
2023/11/25 09:46:34;;;;;;;0.30;0.30;;;12.00;94.70;;;;;;4937256;29;20253;-62
2023/11/25 09:49:00;;;;;;;0.30;0.30;;;11.50;94.60;;;;;;4938340;28;20784;-63
2023/11/25 09:51:27;;;;;;;0.30;0.30;;;10.90;95.20;;;;;;4974660;28;20394;-62
2023/11/25 09:53:57;;;;;;;0.40;0.40;;;10.20;96.00;;;;;;4973625;28;20700;-62
2023/11/25 09:56:22;;;;;;;0.30;0.30;;;9.70;97.60;;;;;;4973966;28;20943;-63
2023/11/25 09:58:49;;;;;;;0.30;0.30;;;9.40;98.70;;;;;;4963109;28;20455;-63
2023/11/25 10:01:16;;;;;;;0.30;0.30;;;9.30;99.60;;;;;;4975539;28;20480;-62
2023/11/25 10:03:42;;;;;;;0.30;0.30;;;9.30;99.90;;;;;;4971096;28;20450;-62
2023/11/25 10:06:08;;;;;;;0.40;0.40;;;9.20;99.90;;;;;;4938715;29;20559;-62
2023/11/25 10:08:35;;;;;;;0.30;0.30;;;9.10;99.90;;;;;;4969013;28;20863;-62
2023/11/25 10:11:08;;;;;;;0.30;0.30;;;9.30;99.90;;;;;;4956291;29;20187;-62
2023/11/25 10:13:42;;;;;;;0.30;0.20;;;9.70;99.90;;;;;;4958585;28;20435;-63
2023/11/25 10:16:08;;;;;;;0.30;0.30;;;10.10;99.90;;;;;;4963446;28;20458;-62
2023/11/25 10:18:38;;;;;;;0.30;0.30;;;10.40;99.30;;;;;;4975163;28;20452;-63
2023/11/25 10:21:05;;;;;;;0.30;0.30;;;10.60;99.10;;;;;;4969813;28;20472;-63
2023/11/25 10:23:32;;;;;;;0.30;0.30;;;10.60;98.30;;;;;;4938740;29;20459;-62
2023/11/25 10:26:03;;;;;;;0.30;0.30;;;10.60;98.40;;;;;;4956679;28;20440;-64
2023/11/25 10:28:32;;;;;;;0.30;0.20;;;10.20;98.30;;;;;;4973320;28;20904;-62
2023/11/25 10:30:59;;;;;;;0.30;0.30;;;9.70;99.10;;;;;;4960788;28;20987;-63
2023/11/25 10:33:27;;;;;;;0.30;0.20;;;9.30;99.90;;;;;;4958887;28;20521;-61
2023/11/25 10:35:53;;;;;;;0.30;0.30;;;9.00;99.90;;;;;;4973929;28;20504;-62
2023/11/25 10:38:22;;;;;;;0.40;0.40;;;8.50;99.90;;;;;;4974451;28;20469;-62
2023/11/25 10:40:50;;;;;;;0.30;0.27;;;8.20;99.90;;;;;;4974051;28;20450;-62
2023/11/25 10:43:19;;;;;;;0.30;0.30;;;8.00;99.90;;;;;;4955146;28;20504;-62
2023/11/25 10:45:46;;;;;;;0.30;0.30;;;7.80;99.90;;;;;;4959425;28;20247;-64
2023/11/25 10:48:12;;;;;;;0.30;0.30;;;7.60;99.90;;;;;;4948780;28;20184;-63
2023/11/25 10:50:40;;;;;;;0.30;0.30;;;7.40;99.90;;;;;;4974854;28;20213;-63
2023/11/25 10:53:07;;;;;;;0.32;0.32;;;7.30;99.90;;;;;;4974383;28;20263;-63
2023/11/25 10:55:33;;;;;;;0.30;0.30;;;7.40;99.90;;;;;;4974381;28;20181;-66
2023/11/25 10:58:02;;;;;;;0.30;0.30;;;7.60;99.90;;;;;;4974456;28;20180;-66
2023/11/25 11:00:29;;;;;;;0.30;0.30;;;7.70;99.90;;;;;;4970488;28;20238;-65
2023/11/25 11:02:57;;;;;;;0.30;0.30;;;7.50;99.90;;;;;;4968068;28;20180;-66
2023/11/25 11:05:55;;;;;;;0.30;0.30;;;7.50;99.90;;;;;;4973571;28;20597;-65
2023/11/25 11:08:36;;;;;;;0.40;0.40;;;7.30;99.90;;;;;;4974001;28;20211;-65
2023/11/25 11:11:08;;;;;;;0.30;0.30;;;7.30;99.90;;;;;;4948364;29;20664;-64
2023/11/25 11:13:42;;;;;;;0.30;0.30;;;7.20;99.90;;;;;;4954896;28;20180;-64
2023/11/25 11:16:43;;;;;;;0.30;0.30;;;7.00;99.90;;;;;;4953678;28;20345;-66
2023/11/25 11:19:09;;;;;;;0.30;0.30;;;7.10;99.90;;;;;;4954979;29;20215;-65
2023/11/25 11:21:38;;;;;;;0.30;0.30;;;7.10;99.90;;;;;;4954809;29;20180;-66
2023/11/25 11:24:08;;;;;;;0.30;0.28;;;7.20;99.90;;;;;;4954710;29;20169;-66
2023/11/25 11:26:58;;;;;;;0.35;0.35;;;7.20;99.90;;;;;;4954127;28;20335;-66
2023/11/25 11:29:42;;;;;;;0.40;0.40;;;7.20;99.90;;;;;;4955113;29;20187;-64
2023/11/25 11:32:08;;;;;;;0.30;0.30;;;7.10;99.90;;;;;;4955094;29;20169;-65
2023/11/25 11:34:36;;;;;;;0.30;0.30;;;7.00;99.90;;;;;;4954681;29;20172;-64
2023/11/25 11:37:02;;;;;;;0.40;0.40;;;7.00;99.90;;;;;;4954972;28;20200;-66
2023/11/25 11:40:05;;;;;;;0.30;0.30;;;7.00;99.90;;;;;;4955069;29;20582;-66
2023/11/25 11:42:34;;;;;;;0.30;0.30;;;7.00;99.90;;;;;;4943504;29;20188;-65
2023/11/25 11:45:11;;;;;;;0.40;0.40;;;7.00;99.90;;;;;;4954556;28;20200;-66
2023/11/25 11:47:40;;;;;;;0.30;0.30;;;7.00;99.90;;;;;;4955162;29;20652;-66
2023/11/25 11:50:10;;;;;;;0.30;0.30;;;6.80;99.90;;;;;;4955139;29;20177;-65
2023/11/25 11:53:01;;;;;;;0.30;0.30;;;6.80;99.90;;;;;;4954892;29;20177;-66
2023/11/25 11:55:38;;;;;;;0.35;0.35;;;6.60;99.90;;;;;;4954374;28;20200;-66
2023/11/25 11:58:06;;;;;;;0.35;0.35;;;6.50;99.90;;;;;;4955003;29;20185;-66
2023/11/25 12:00:36;;;;;;;0.35;0.35;;;6.30;99.90;;;;;;4954929;29;20177;-64
2023/11/25 12:03:01;;;;;;;0.30;0.30;;;6.10;99.90;;;;;;4955080;29;20623;-66
2023/11/25 12:05:27;;;;;;;0.30;0.30;;;5.90;99.90;;;;;;4954274;28;20232;-65
2023/11/25 12:07:53;;;;;;;0.40;0.40;;;5.70;99.90;;;;;;4954923;29;20415;-64
2023/11/25 12:10:19;;;;;;;0.30;0.30;;;5.60;99.90;;;;;;4954956;29;20191;-66
2023/11/25 12:12:45;;;;;;;0.30;0.30;;;5.40;99.90;;;;;;4955010;28;20188;-66
2023/11/25 12:15:11;;;;;;;0.30;0.30;;;5.30;99.90;;;;;;4958091;28;20545;-64
2023/11/25 12:17:40;;;;;;;0.30;0.30;;;5.30;99.90;;;;;;4958468;29;20175;-65
2023/11/25 12:20:08;;;;;;;0.40;0.40;;;5.30;99.90;;;;;;4958197;29;20204;-65
2023/11/25 12:22:34;;;;;;;0.93;0.80;;;5.30;99.90;;;;;;4941047;29;20301;-65
2023/11/25 12:25:00;;;;;;;0.30;0.30;;;5.40;99.90;;;;;;4957757;28;20679;-65
2023/11/25 12:27:29;;;;;;;0.30;0.30;;;5.40;99.90;;;;;;4941022;29;20185;-64
2023/11/25 12:29:55;;;;;;;0.40;0.40;;;5.50;99.90;;;;;;4958291;29;20449;-66
2023/11/25 12:32:20;;;;;;;0.40;0.40;;;5.50;99.90;;;;;;4957996;29;20247;-66
2023/11/25 12:34:48;;;;;;;0.30;0.30;;;5.50;99.90;;;;;;4957629;28;20227;-65
2023/11/25 12:37:13;;;;;;;0.30;0.30;;;5.50;99.90;;;;;;4966604;28;20579;-65
2023/11/25 12:39:39;;;;;;;0.30;0.30;;;5.40;99.90;;;;;;4977055;28;20256;-66
2023/11/25 12:42:05;;;;;;;0.50;0.50;;;5.30;99.90;;;;;;4977342;28;20543;-65
2023/11/25 12:44:53;;;;;;;0.40;0.40;;;5.20;99.90;;;;;;4976712;28;20665;-65
2023/11/25 12:47:19;;;;;;;0.30;0.30;;;5.20;99.90;;;;;;4960061;28;20612;-64
2023/11/25 12:49:44;;;;;;;0.30;0.30;;;5.10;99.90;;;;;;4977153;28;20258;-64
2023/11/25 12:52:21;;;;;;;0.40;0.40;;;5.10;99.90;;;;;;4976839;28;20652;-65
2023/11/25 12:54:49;;;;;;;0.40;0.40;;;5.00;99.90;;;;;;4976430;28;20173;-65
2023/11/25 12:57:15;;;;;;;0.50;0.50;;;5.00;99.90;;;;;;4976952;28;20179;-65
2023/11/25 12:59:41;;;;;;;0.30;0.30;;;5.00;99.90;;;;;;4976895;28;20244;-64
2023/11/25 13:02:12;;;;;;;0.30;0.30;;;5.00;99.90;;;;;;4976805;28;20269;-64
2023/11/25 13:04:50;;;;;;;0.40;0.40;;;5.00;99.90;;;;;;4976293;28;20713;-66
2023/11/25 13:07:33;;;;;;;0.40;0.40;;;5.10;99.90;;;;;;4977135;28;20194;-64
2023/11/25 13:09:59;;;;;;;0.30;0.30;;;5.20;99.90;;;;;;4959653;28;20543;-65
2023/11/25 13:12:26;;;;;;;0.30;0.30;;;5.30;99.90;;;;;;4959189;28;20168;-64
2023/11/25 13:14:52;;;;;;;0.30;0.30;;;5.30;99.90;;;;;;4975813;28;20423;-65
2023/11/25 13:17:18;;;;;;;0.30;0.30;;;5.40;99.90;;;;;;4976650;28;20175;-65
2023/11/25 13:19:44;;;;;;;0.30;0.30;;;5.40;99.90;;;;;;4976748;28;20199;-66
2023/11/25 13:22:10;;;;;;;0.40;0.40;;;5.50;99.90;;;;;;4976444;28;20259;-65
2023/11/25 13:24:36;;;;;;;0.35;0.35;;;5.40;99.90;;;;;;4975142;28;20414;-65
2023/11/25 13:27:03;;;;;;;0.30;0.30;;;5.40;99.90;;;;;;4976774;28;20231;-65
2023/11/25 13:29:29;;;;;;;0.30;0.30;;;5.50;99.90;;;;;;4976433;28;20190;-66
2023/11/25 13:31:56;;;;;;;0.40;0.40;;;5.50;99.90;;;;;;4976212;28;20183;-65
2023/11/25 13:34:22;;;;;;;0.30;0.30;;;5.50;99.90;;;;;;4976055;28;20211;-65
2023/11/25 13:36:48;;;;;;;0.40;0.40;;;5.50;99.90;;;;;;4970641;28;20282;-65
2023/11/25 13:39:19;;;;;;;0.30;0.30;;;5.50;99.90;;;;;;4957013;29;20470;-65
2023/11/25 13:41:46;;;;;;;0.38;0.38;;;5.50;99.90;;;;;;4956758;29;20415;-66
2023/11/25 13:44:12;;;;;;;0.30;0.30;;;5.50;99.90;;;;;;4956865;29;20196;-65
2023/11/25 13:46:38;;;;;;;0.30;0.30;;;5.40;99.90;;;;;;4956804;28;20279;-66
2023/11/25 13:49:04;;;;;;;0.37;0.37;;;5.40;99.90;;;;;;4956651;29;20283;-66
2023/11/25 13:51:30;;;;;;;0.30;0.30;;;5.40;99.90;;;;;;4956679;29;20416;-65
2023/11/25 13:53:57;;;;;;;0.40;0.40;;;5.30;99.90;;;;;;4956554;29;20191;-65
2023/11/25 13:56:24;;;;;;;0.40;0.40;;;5.30;99.90;;;;;;4956551;28;20223;-65
2023/11/25 13:58:50;;;;;;;0.40;0.40;;;5.30;99.90;;;;;;4956421;29;20215;-66
2023/11/25 14:01:16;;;;;;;0.40;0.40;;;5.30;99.90;;;;;;4956437;29;20184;-65
2023/11/25 14:03:42;;;;;;;0.30;0.30;;;5.20;99.90;;;;;;4956459;29;20254;-66
2023/11/25 14:06:08;;;;;;;0.30;0.30;;;5.30;99.90;;;;;;4955771;28;20314;-65
2023/11/25 14:08:34;;;;;;;0.30;0.30;;;5.30;99.90;;;;;;4956109;29;20578;-65
2023/11/25 14:11:00;;;;;;;0.32;0.32;;;5.30;99.90;;;;;;4956358;29;20183;-65
2023/11/25 14:13:27;;;;;;;0.40;0.40;;;5.30;99.90;;;;;;4956541;29;20181;-66
2023/11/25 14:15:53;;;;;;;0.30;0.30;;;5.40;99.90;;;;;;4955859;28;20211;-65
2023/11/25 14:18:18;;;;;;;0.30;0.30;;;5.40;99.90;;;;;;4955968;29;20264;-64
2023/11/25 14:20:44;;;;;;;0.30;0.30;;;5.30;99.90;;;;;;4956117;29;20462;-66
2023/11/25 14:23:10;;;;;;;0.30;0.30;;;5.40;99.90;;;;;;4956222;29;20176;-66
2023/11/25 14:25:35;;;;;;;0.40;0.40;;;5.30;99.90;;;;;;4955560;28;20210;-65
2023/11/25 14:28:02;;;;;;;0.33;0.33;;;5.30;99.90;;;;;;4955917;29;20207;-65
2023/11/25 14:30:30;;;;;;;0.40;0.40;;;5.30;99.90;;;;;;4955976;29;20266;-65
2023/11/25 14:32:56;;;;;;;0.30;0.30;;;5.20;99.90;;;;;;4955822;29;20259;-66
2023/11/25 14:35:22;;;;;;;0.40;0.40;;;5.30;99.90;;;;;;4955591;28;20584;-66
2023/11/25 14:37:48;;;;;;;0.30;0.30;;;5.20;99.90;;;;;;4952191;28;20187;-65
2023/11/25 14:40:14;;;;;;;0.30;0.30;;;5.20;99.90;;;;;;4975107;28;20211;-65
2023/11/25 14:42:43;;;;;;;0.40;0.40;;;5.20;99.90;;;;;;4975186;28;20407;-65
2023/11/25 14:45:10;;;;;;;0.38;0.38;;;5.20;99.90;;;;;;4974741;28;20621;-65
2023/11/25 14:47:36;;;;;;;0.35;0.35;;;5.20;99.90;;;;;;4975122;28;20180;-65
2023/11/25 14:50:03;;;;;;;0.32;0.32;;;5.20;99.90;;;;;;4975017;28;20240;-65
2023/11/25 14:52:29;;;;;;;0.30;0.30;;;5.20;99.90;;;;;;4974611;28;20172;-66
2023/11/25 14:54:54;;;;;;;0.30;0.30;;;5.20;99.90;;;;;;4974303;28;20214;-65
2023/11/25 14:57:21;;;;;;;0.33;0.33;;;5.20;99.90;;;;;;4974985;28;20199;-66
2023/11/25 14:59:47;;;;;;;0.30;0.30;;;5.20;99.90;;;;;;4974886;28;20209;-65
2023/11/25 15:02:12;;;;;;;0.30;0.30;;;5.20;99.90;;;;;;4974984;28;20536;-66
2023/11/25 15:04:38;;;;;;;0.40;0.40;;;5.20;99.90;;;;;;4974353;28;20537;-64
2023/11/25 15:07:04;;;;;;;0.30;0.30;;;5.20;99.90;;;;;;4974530;28;20176;-66
2023/11/25 15:09:30;;;;;;;0.32;0.32;;;5.20;99.90;;;;;;4974595;28;20421;-66
2023/11/25 15:11:58;;;;;;;0.30;0.30;;;5.20;99.90;;;;;;4974677;28;20261;-65
2023/11/25 15:14:24;;;;;;;0.32;0.32;;;5.20;99.90;;;;;;4974277;28;20415;-63
2023/11/25 15:16:51;;;;;;;0.40;0.40;;;5.20;99.90;;;;;;4974622;28;20200;-65
2023/11/25 15:19:17;;;;;;;0.30;0.30;;;5.30;99.90;;;;;;4974694;28;20202;-66
2023/11/25 15:21:43;;;;;;;0.40;0.40;;;5.20;99.90;;;;;;4974579;28;20233;-65
2023/11/25 15:24:09;;;;;;;0.30;0.30;;;5.30;99.90;;;;;;4974036;28;20182;-66
2023/11/25 15:26:36;;;;;;;0.30;0.30;;;5.30;99.90;;;;;;4974520;28;20210;-66
2023/11/25 15:29:02;;;;;;;0.40;0.40;;;5.30;99.90;;;;;;4974511;28;20176;-66
2023/11/25 15:31:28;;;;;;;0.40;0.40;;;5.20;99.90;;;;;;4974559;28;20187;-66
2023/11/25 15:33:53;;;;;;;0.30;0.30;;;5.20;99.90;;;;;;4957121;28;20429;-65
2023/11/25 15:36:19;;;;;;;0.33;0.33;;;5.30;99.90;;;;;;4972520;28;20230;-65
2023/11/25 15:38:45;;;;;;;0.30;0.30;;;5.30;99.90;;;;;;4955073;29;20212;-65
2023/11/25 15:41:12;;;;;;;0.30;0.30;;;5.20;99.90;;;;;;4955214;29;20443;-66
2023/11/25 15:43:38;;;;;;;0.30;0.30;;;5.20;99.90;;;;;;4937755;29;20180;-65
2023/11/25 15:46:07;;;;;;;0.30;0.30;;;5.20;99.90;;;;;;4954658;28;20555;-66
2023/11/25 15:48:33;;;;;;;0.40;0.40;;;5.20;99.90;;;;;;4956553;28;20171;-66
2023/11/25 15:50:59;;;;;;;0.40;0.40;;;5.20;99.90;;;;;;4958838;29;20188;-65
2023/11/25 15:53:25;;;;;;;0.30;0.30;;;5.20;99.90;;;;;;4958794;29;20665;-65
2023/11/25 15:55:50;;;;;;;0.30;0.30;;;5.20;99.90;;;;;;4958355;28;20225;-65
2023/11/25 15:58:16;;;;;;;0.30;0.30;;;5.20;99.90;;;;;;4941459;29;20173;-65
2023/11/25 16:00:44;;;;;;;0.30;0.30;;;5.20;99.90;;;;;;4958766;29;20245;-65
2023/11/25 16:03:09;;;;;;;0.32;0.32;;;5.10;99.90;;;;;;4958814;29;20541;-65
2023/11/25 16:05:35;;;;;;;0.30;0.30;;;5.20;99.90;;;;;;4957983;28;20189;-65
2023/11/25 16:08:01;;;;;;;0.30;0.30;;;5.10;99.90;;;;;;4958817;29;20173;-66
2023/11/25 16:10:31;;;;;;;0.30;0.30;;;5.10;99.90;;;;;;4958500;29;20469;-65
2023/11/25 16:13:02;;;;;;;0.40;0.40;;;5.20;99.90;;;;;;4958403;29;20413;-65
2023/11/25 16:15:28;;;;;;;0.30;0.30;;;5.10;99.90;;;;;;4958109;28;20663;-66
2023/11/25 16:17:55;;;;;;;0.30;0.30;;;5.10;99.90;;;;;;4958607;29;20211;-67
2023/11/25 16:20:21;;;;;;;0.30;0.30;;;5.10;99.90;;;;;;4958421;29;20230;-65
2023/11/25 16:22:47;;;;;;;0.30;0.30;;;5.10;99.90;;;;;;4958529;29;20708;-65
2023/11/25 16:25:15;;;;;;;0.30;0.30;;;5.10;99.90;;;;;;4958035;28;20220;-66
2023/11/25 16:27:41;;;;;;;0.40;0.40;;;5.10;99.90;;;;;;4958286;29;20658;-66
2023/11/25 16:30:08;;;;;;;0.30;0.30;;;5.10;99.90;;;;;;4958286;29;20181;-65
2023/11/25 16:32:34;;;;;;;0.30;0.30;;;5.10;99.90;;;;;;4958154;29;20191;-66
2023/11/25 16:34:59;;;;;;;0.65;0.65;;;5.10;99.90;;;;;;4957745;28;20225;-65
2023/11/25 16:37:26;;;;;;;0.30;0.30;;;5.10;99.90;;;;;;4968681;28;20210;-65
2023/11/25 16:39:51;;;;;;;0.30;0.30;;;5.10;99.90;;;;;;4977434;28;20210;-65
2023/11/25 16:42:17;;;;;;;0.40;0.40;;;5.10;99.90;;;;;;4977424;28;20227;-65
2023/11/25 16:44:44;;;;;;;0.40;0.40;;;5.10;99.90;;;;;;4976797;28;20302;-66
2023/11/25 16:47:10;;;;;;;0.30;0.30;;;5.00;99.90;;;;;;4977065;28;20204;-66
2023/11/25 16:49:36;;;;;;;0.40;0.40;;;5.00;99.90;;;;;;4977215;28;20214;-64
2023/11/25 16:52:02;;;;;;;0.40;0.40;;;5.00;99.90;;;;;;4977289;28;20418;-66
2023/11/25 16:54:27;;;;;;;0.30;0.30;;;5.00;99.90;;;;;;4976501;28;20451;-66
2023/11/25 16:56:53;;;;;;;0.40;0.40;;;5.00;99.90;;;;;;4977110;28;20237;-65
2023/11/25 16:59:19;;;;;;;0.40;0.40;;;5.00;99.90;;;;;;4976707;28;20280;-65
2023/11/25 17:01:45;;;;;;;0.40;0.40;;;5.00;99.90;;;;;;4976862;28;20178;-64